Time;durP1;ratioP1;P1;durP2;ratioP2;P2;SDS_P1;SDS_P2;PMS_P1;PMS_P2;Temp;Humidity;BMP_temperature;BMP_pressure;BME280_temperature;BME280_humidity;BME280_pressure;Samples;Min_cycle;Max_cycle;Signal;HPM_P1;HPM_P2
2021/01/11 00:00:43;;;;;;;5.53;3.70;;;1.70;78.40;;;;;;8271065;28;20518;-73
2021/01/11 00:04:47;;;;;;;9.53;5.27;;;1.70;79.00;;;;;;8262590;28;21307;-75
2021/01/11 00:08:48;;;;;;;7.13;6.43;;;1.80;79.20;;;;;;8259906;28;20933;-74
2021/01/11 00:12:52;;;;;;;5.30;4.80;;;1.90;79.70;;;;;;8254208;28;20198;-75
2021/01/11 00:16:58;;;;;;;9.43;4.30;;;1.90;79.00;;;;;;8260865;28;20445;-75
2021/01/11 00:21:02;;;;;;;6.30;4.87;;;2.00;78.80;;;;;;8247781;28;20456;-75
2021/01/11 00:25:09;;;;;;;7.23;6.03;;;2.10;79.80;;;;;;8269312;28;20456;-75
2021/01/11 00:29:20;;;;;;;4.53;4.10;;;2.10;79.80;;;;;;8253723;28;20865;-75
2021/01/11 00:33:21;;;;;;;6.80;5.27;;;2.20;80.20;;;;;;8259336;28;21032;-75
2021/01/11 00:37:31;;;;;;;7.77;5.77;;;2.20;80.40;;;;;;8240182;28;20558;-75
2021/01/11 00:41:39;;;;;;;6.73;4.37;;;2.10;79.00;;;;;;8250600;28;20817;-75
2021/01/11 00:45:44;;;;;;;4.57;4.17;;;2.00;77.50;;;;;;8266928;28;20884;-75
2021/01/11 00:49:52;;;;;;;5.77;3.77;;;2.00;76.90;;;;;;8265052;28;20205;-75
2021/01/11 00:53:58;;;;;;;5.00;4.37;;;1.90;76.70;;;;;;8253893;28;20459;-75
2021/01/11 00:57:59;;;;;;;6.70;4.73;;;1.90;76.90;;;;;;8240438;28;20828;-75
2021/01/11 01:02:04;;;;;;;4.33;4.03;;;1.80;76.60;;;;;;8259030;28;20448;-75
2021/01/11 01:06:17;;;;;;;3.13;2.90;;;1.70;76.60;;;;;;8273947;28;20487;-74
2021/01/11 01:10:18;;;;;;;5.10;3.87;;;1.60;76.70;;;;;;8243084;28;20488;-74
2021/01/11 01:14:22;;;;;;;4.50;3.80;;;1.60;77.00;;;;;;8245566;28;20457;-75
2021/01/11 01:18:27;;;;;;;3.90;3.57;;;1.60;76.00;;;;;;8250873;28;20450;-74
2021/01/11 01:22:31;;;;;;;5.10;4.70;;;1.60;75.80;;;;;;8242158;28;20892;-74
2021/01/11 01:26:39;;;;;;;4.47;4.07;;;1.70;75.30;;;;;;8252884;28;20457;-74
2021/01/11 01:30:43;;;;;;;5.10;4.30;;;1.70;75.10;;;;;;8255213;28;20468;-74
2021/01/11 01:34:45;;;;;;;7.07;3.47;;;1.70;74.60;;;;;;8232143;28;20484;-74
2021/01/11 01:38:46;;;;;;;4.63;4.23;;;1.70;74.60;;;;;;8269342;28;20296;-74
2021/01/11 01:42:52;;;;;;;3.73;3.40;;;1.70;74.10;;;;;;8258127;28;21011;-74
2021/01/11 01:46:53;;;;;;;5.20;4.60;;;1.70;74.50;;;;;;8267462;28;20452;-74
2021/01/11 01:50:54;;;;;;;5.63;4.80;;;1.70;73.90;;;;;;8260439;28;20496;-74
2021/01/11 01:54:58;;;;;;;6.03;3.53;;;1.70;73.90;;;;;;8254655;28;20455;-74
2021/01/11 01:59:04;;;;;;;7.43;4.77;;;1.60;74.20;;;;;;8268016;28;20453;-74
2021/01/11 02:03:05;;;;;;;3.27;2.97;;;1.60;73.90;;;;;;8257295;28;20600;-74
2021/01/11 02:07:22;;;;;;;4.70;4.30;;;1.60;73.80;;;;;;8245214;28;20483;-74
2021/01/11 02:11:48;;;;;;;4.03;3.50;;;1.60;73.80;;;;;;8269883;28;20495;-73
2021/01/11 02:15:55;;;;;;;6.03;5.10;;;1.60;73.70;;;;;;8248240;28;20445;-73
2021/01/11 02:20:40;;;;;;;7.50;4.77;;;1.50;73.80;;;;;;8252525;28;20548;-74
2021/01/11 02:25:15;;;;;;;5.80;4.67;;;1.50;74.20;;;;;;8256792;28;20441;-74
2021/01/11 02:29:54;;;;;;;5.30;4.50;;;1.40;74.70;;;;;;8245969;28;20884;-74
2021/01/11 02:33:58;;;;;;;4.90;2.90;;;1.30;75.10;;;;;;8255310;28;20971;-74
2021/01/11 02:38:04;;;;;;;4.60;4.00;;;1.30;75.50;;;;;;8251081;28;20467;-73
2021/01/11 02:42:05;;;;;;;4.40;4.10;;;1.20;75.50;;;;;;8266665;28;20488;-73
2021/01/11 02:46:15;;;;;;;4.70;4.03;;;1.20;75.60;;;;;;8256744;28;20471;-73
2021/01/11 02:50:24;;;;;;;5.83;3.87;;;1.20;75.80;;;;;;8247893;28;20464;-73
2021/01/11 02:54:40;;;;;;;6.07;3.97;;;1.20;75.50;;;;;;8256023;28;20456;-73
2021/01/11 02:59:06;;;;;;;4.90;4.47;;;1.20;75.40;;;;;;8258822;28;20539;-74
2021/01/11 03:03:16;;;;;;;4.10;3.80;;;1.20;75.20;;;;;;8255722;28;20452;-73
2021/01/11 03:07:21;;;;;;;4.80;3.90;;;1.10;75.20;;;;;;8251094;28;20860;-74
2021/01/11 03:11:29;;;;;;;5.67;4.27;;;1.10;75.40;;;;;;8240471;28;20480;-73
2021/01/11 03:15:34;;;;;;;3.80;3.10;;;1.10;75.30;;;;;;8241635;28;20456;-74
2021/01/11 03:19:38;;;;;;;4.77;3.53;;;1.00;75.20;;;;;;8246624;28;20988;-73
2021/01/11 03:23:46;;;;;;;5.07;4.70;;;1.10;75.30;;;;;;8257095;28;20468;-74
2021/01/11 03:27:47;;;;;;;4.00;3.50;;;1.00;75.20;;;;;;8249072;28;20456;-74
2021/01/11 03:31:48;;;;;;;4.60;3.70;;;1.00;75.10;;;;;;8267679;28;20473;-73
2021/01/11 03:35:49;;;;;;;5.27;3.90;;;1.00;75.00;;;;;;8256956;28;20457;-74
2021/01/11 03:39:49;;;;;;;4.90;4.50;;;1.10;74.80;;;;;;8270121;28;20351;-74
2021/01/11 03:43:54;;;;;;;4.50;4.10;;;1.10;74.50;;;;;;8229029;28;20232;-74
2021/01/11 03:48:02;;;;;;;5.57;4.20;;;1.20;73.90;;;;;;8253136;28;20456;-73
2021/01/11 03:52:05;;;;;;;6.20;4.50;;;1.30;73.70;;;;;;8217727;28;20484;-74
2021/01/11 03:56:20;;;;;;;4.63;4.20;;;1.30;73.70;;;;;;8249304;28;20189;-74
2021/01/11 04:00:24;;;;;;;5.50;4.63;;;1.40;73.30;;;;;;8279351;28;20448;-74
2021/01/11 04:04:30;;;;;;;3.40;3.10;;;1.50;72.80;;;;;;8244346;28;20472;-74
2021/01/11 04:08:31;;;;;;;5.50;4.40;;;1.50;73.00;;;;;;8254080;28;20472;-73
2021/01/11 04:12:33;;;;;;;7.13;4.63;;;1.60;73.10;;;;;;8252696;28;20487;-74
2021/01/11 04:16:41;;;;;;;4.17;3.73;;;1.50;73.00;;;;;;8246374;28;20257;-74
2021/01/11 04:20:42;;;;;;;4.40;4.00;;;1.50;72.60;;;;;;8265581;28;20944;-73
2021/01/11 04:24:48;;;;;;;4.70;4.10;;;1.50;72.90;;;;;;8261308;28;20453;-73
2021/01/11 04:28:52;;;;;;;6.43;4.50;;;1.40;73.20;;;;;;8262010;28;20460;-73
2021/01/11 04:32:54;;;;;;;5.83;4.90;;;1.30;73.40;;;;;;8240219;28;20467;-74
2021/01/11 04:36:59;;;;;;;4.50;3.87;;;1.30;73.40;;;;;;8251260;28;20792;-74
2021/01/11 04:41:08;;;;;;;4.80;4.40;;;1.20;73.50;;;;;;8239058;28;20459;-74
2021/01/11 04:45:09;;;;;;;4.53;3.70;;;1.20;73.60;;;;;;8258851;28;20456;-73
2021/01/11 04:49:16;;;;;;;4.40;4.07;;;1.20;73.50;;;;;;8250082;28;20267;-74
2021/01/11 04:53:20;;;;;;;3.80;3.40;;;1.10;73.30;;;;;;8261045;28;20451;-74
2021/01/11 04:57:31;;;;;;;3.83;3.53;;;1.20;72.80;;;;;;8276697;28;20536;-74
2021/01/11 05:01:40;;;;;;;5.17;4.00;;;1.30;72.80;;;;;;8256743;28;20471;-74
2021/01/11 05:05:45;;;;;;;5.63;4.83;;;1.30;72.50;;;;;;8259887;28;20522;-74
2021/01/11 05:09:46;;;;;;;5.20;4.70;;;1.30;72.70;;;;;;8260585;28;20475;-74
2021/01/11 05:14:00;;;;;;;6.17;4.70;;;1.20;73.00;;;;;;8224442;28;20464;-74
2021/01/11 05:18:22;;;;;;;5.10;4.70;;;1.20;73.30;;;;;;8254957;28;20953;-74
2021/01/11 05:22:30;;;;;;;4.47;3.90;;;1.10;73.90;;;;;;8257712;28;20432;-74
2021/01/11 05:26:39;;;;;;;11.10;7.50;;;1.10;74.20;;;;;;8257021;28;20591;-77
2021/01/11 05:30:41;;;;;;;9.37;7.73;;;1.00;74.80;;;;;;8249927;28;20490;-73
2021/01/11 05:34:52;;;;;;;10.43;6.37;;;1.00;75.10;;;;;;8268736;28;20454;-75
2021/01/11 05:38:53;;;;;;;9.50;6.17;;;0.80;75.60;;;;;;8256293;28;20445;-74
2021/01/11 05:42:56;;;;;;;6.73;5.50;;;0.70;76.10;;;;;;8269572;28;20482;-73
2021/01/11 05:47:02;;;;;;;8.93;5.93;;;0.70;76.60;;;;;;8248250;28;20227;-74
2021/01/11 05:51:04;;;;;;;7.87;6.13;;;0.60;77.10;;;;;;8249092;28;20520;-74
2021/01/11 05:55:42;;;;;;;7.20;6.07;;;0.50;78.10;;;;;;8247278;28;20892;-75
2021/01/11 05:59:43;;;;;;;9.80;7.80;;;0.40;78.60;;;;;;8230635;28;20460;-74
2021/01/11 06:03:47;;;;;;;9.57;6.73;;;0.30;78.70;;;;;;8237355;28;20475;-73
2021/01/11 06:07:52;;;;;;;7.13;5.77;;;0.20;78.80;;;;;;8238477;28;20455;-74
2021/01/11 06:11:58;;;;;;;12.50;7.90;;;0.10;79.20;;;;;;8250108;28;20621;-74
2021/01/11 06:16:00;;;;;;;9.03;6.93;;;0.10;80.40;;;;;;8252153;28;20479;-73
2021/01/11 06:20:07;;;;;;;12.63;8.20;;;0.00;80.30;;;;;;8267739;28;20449;-75
2021/01/11 06:24:17;;;;;;;9.73;6.80;;;0.00;80.40;;;;;;8233674;28;20884;-72
2021/01/11 06:28:39;;;;;;;9.70;6.10;;;0.00;81.30;;;;;;8219004;28;22063;-74
2021/01/11 06:32:43;;;;;;;9.40;7.97;;;0.10;80.90;;;;;;8221084;28;20572;-74
2021/01/11 06:36:49;;;;;;;10.07;6.47;;;0.20;80.00;;;;;;8226196;28;20440;-73
2021/01/11 06:40:52;;;;;;;12.73;6.97;;;0.30;79.30;;;;;;8194508;28;20473;-74
2021/01/11 06:44:55;;;;;;;10.17;6.20;;;0.30;78.80;;;;;;8186969;28;20612;-75
2021/01/11 06:49:02;;;;;;;7.30;5.00;;;0.40;78.30;;;;;;8192589;28;20457;-73
2021/01/11 06:53:03;;;;;;;6.60;5.43;;;0.40;77.80;;;;;;8208657;28;20807;-73
2021/01/11 06:57:13;;;;;;;10.13;6.00;;;0.50;77.40;;;;;;8194250;28;20499;-73
2021/01/11 07:01:13;;;;;;;11.17;6.03;;;0.50;77.00;;;;;;8196655;28;20452;-74
2021/01/11 07:05:35;;;;;;;8.27;6.77;;;0.50;76.80;;;;;;8202404;28;20472;-74
2021/01/11 07:09:47;;;;;;;13.63;8.17;;;0.50;76.60;;;;;;8197120;28;20212;-74
2021/01/11 07:13:48;;;;;;;9.13;6.50;;;0.60;76.60;;;;;;8207603;28;20466;-74
2021/01/11 07:17:52;;;;;;;9.60;6.90;;;0.50;76.50;;;;;;8202185;28;20516;-73
2021/01/11 07:21:53;;;;;;;6.87;5.60;;;0.60;76.20;;;;;;8193562;28;21163;-74
2021/01/11 07:26:00;;;;;;;10.70;6.37;;;0.70;76.00;;;;;;8190922;28;20450;-73
2021/01/11 07:30:05;;;;;;;10.20;7.60;;;0.70;75.80;;;;;;8192127;28;20510;-73
2021/01/11 07:34:14;;;;;;;8.57;6.03;;;0.80;75.40;;;;;;8178227;29;20461;-72
2021/01/11 07:38:21;;;;;;;9.43;6.30;;;0.90;75.10;;;;;;8199952;28;20442;-74
2021/01/11 07:42:21;;;;;;;11.17;6.03;;;0.90;74.70;;;;;;8203793;28;20450;-74
2021/01/11 07:46:23;;;;;;;8.53;7.00;;;1.00;74.40;;;;;;8219703;28;20817;-74
2021/01/11 07:50:28;;;;;;;12.80;8.17;;;1.00;74.50;;;;;;8229306;28;20985;-74
2021/01/11 07:54:33;;;;;;;14.20;7.87;;;1.10;74.70;;;;;;8192391;28;20563;-74
2021/01/11 07:58:50;;;;;;;7.90;5.60;;;1.10;74.30;;;;;;8199833;28;20456;-74
2021/01/11 08:02:51;;;;;;;7.73;5.63;;;1.20;73.90;;;;;;8192616;28;20568;-73
2021/01/11 08:06:59;;;;;;;11.20;7.43;;;1.30;73.70;;;;;;8215700;28;20426;-73
2021/01/11 08:11:04;;;;;;;7.40;6.03;;;1.30;73.70;;;;;;8204554;28;20210;-74
2021/01/11 08:15:09;;;;;;;7.40;6.57;;;1.40;73.50;;;;;;8209706;28;20458;-74
2021/01/11 08:19:12;;;;;;;9.03;5.90;;;1.40;73.40;;;;;;8215757;28;21029;-73
2021/01/11 08:23:25;;;;;;;10.43;6.60;;;1.40;74.20;;;;;;8200200;28;20445;-76
2021/01/11 08:27:49;;;;;;;13.27;7.17;;;1.40;73.50;;;;;;8191381;28;20467;-74
2021/01/11 08:31:49;;;;;;;11.33;7.43;;;1.40;73.70;;;;;;8207325;28;20846;-73
2021/01/11 08:36:18;;;;;;;8.80;6.20;;;1.50;73.90;;;;;;8185657;28;20812;-74
2021/01/11 08:40:33;;;;;;;10.10;7.07;;;1.50;74.00;;;;;;8191858;28;20461;-73
2021/01/11 08:44:44;;;;;;;10.10;7.10;;;1.60;73.90;;;;;;8195449;28;20451;-75
2021/01/11 08:48:46;;;;;;;14.40;7.93;;;1.70;73.90;;;;;;8185335;28;20460;-74
2021/01/11 08:52:50;;;;;;;20.80;13.83;;;1.80;73.50;;;;;;8215434;28;20490;-75
2021/01/11 08:56:51;;;;;;;9.70;7.73;;;2.00;73.00;;;;;;8198945;28;20461;-74
2021/01/11 09:01:16;;;;;;;14.43;5.70;;;2.20;72.60;;;;;;8193671;28;20459;-74
2021/01/11 09:05:23;;;;;;;10.10;6.77;;;2.40;72.00;;;;;;8193851;28;20509;-75
2021/01/11 09:09:36;;;;;;;13.80;8.60;;;2.80;71.10;;;;;;8203707;28;20906;-75
2021/01/11 09:13:38;;;;;;;10.10;7.40;;;3.20;70.60;;;;;;8203193;28;20470;-74
2021/01/11 09:17:44;;;;;;;11.97;7.60;;;3.70;70.30;;;;;;8186931;28;20518;-75
2021/01/11 09:22:17;;;;;;;7.30;5.63;;;4.50;68.10;;;;;;8188838;28;20458;-73
2021/01/11 09:26:18;;;;;;;6.37;5.20;;;5.10;65.40;;;;;;8195388;28;20461;-74
2021/01/11 09:30:27;;;;;;;10.23;5.53;;;5.30;64.00;;;;;;8192004;28;20540;-73
2021/01/11 09:34:32;;;;;;;7.17;5.93;;;5.30;62.70;;;;;;8194596;28;20490;-74
2021/01/11 09:38:37;;;;;;;10.30;6.60;;;5.30;62.50;;;;;;8195159;28;20450;-74
2021/01/11 09:42:38;;;;;;;9.33;5.30;;;5.30;62.20;;;;;;8189815;28;20564;-75
2021/01/11 09:46:51;;;;;;;9.37;7.00;;;5.20;61.40;;;;;;8195605;28;20449;-75
2021/01/11 09:50:54;;;;;;;12.20;6.23;;;4.80;62.30;;;;;;8215027;28;20911;-74
2021/01/11 09:55:03;;;;;;;7.50;5.13;;;4.50;63.10;;;;;;8204374;28;20456;-75
2021/01/11 09:59:08;;;;;;;7.37;4.70;;;4.10;64.10;;;;;;8194121;28;20453;-74
2021/01/11 10:03:09;;;;;;;8.57;6.27;;;3.80;65.00;;;;;;8211420;28;20484;-75
2021/01/11 10:07:10;;;;;;;7.80;6.03;;;3.80;66.00;;;;;;8190255;28;20542;-74
2021/01/11 10:11:15;;;;;;;10.83;5.13;;;3.90;66.20;;;;;;8178820;28;20521;-74
2021/01/11 10:15:27;;;;;;;10.90;6.83;;;4.00;65.80;;;;;;8198416;29;20436;-74
2021/01/11 10:19:32;;;;;;;7.47;5.70;;;4.20;65.40;;;;;;8188700;28;20458;-74
2021/01/11 10:23:37;;;;;;;8.33;4.80;;;4.30;65.00;;;;;;8195532;28;20479;-75
2021/01/11 10:27:38;;;;;;;7.80;5.13;;;4.40;65.00;;;;;;8186758;28;20507;-74
2021/01/11 10:31:40;;;;;;;8.47;5.60;;;4.50;65.10;;;;;;8208587;28;20522;-74
2021/01/11 10:35:55;;;;;;;10.50;6.37;;;4.40;65.10;;;;;;8197129;28;21095;-75
2021/01/11 10:40:00;;;;;;;9.13;6.17;;;4.40;65.80;;;;;;8202782;28;21184;-74
2021/01/11 10:44:09;;;;;;;11.93;8.50;;;4.20;65.80;;;;;;8184071;28;20843;-73
2021/01/11 10:48:13;;;;;;;10.47;7.20;;;4.10;66.60;;;;;;8176139;28;20464;-74
2021/01/11 10:52:16;;;;;;;8.60;5.67;;;3.90;67.10;;;;;;8191600;28;20493;-74
2021/01/11 10:56:22;;;;;;;14.00;7.40;;;3.80;67.70;;;;;;8191754;28;20445;-74
2021/01/11 11:00:25;;;;;;;7.80;6.40;;;3.80;68.10;;;;;;8192481;28;20949;-74
2021/01/11 11:04:25;;;;;;;9.60;6.40;;;4.00;68.10;;;;;;8185625;28;20618;-73
2021/01/11 11:08:31;;;;;;;11.70;6.37;;;4.20;67.90;;;;;;8197885;28;20476;-74
2021/01/11 11:12:45;;;;;;;11.73;7.20;;;4.50;67.90;;;;;;8190249;28;20485;-74
2021/01/11 11:16:48;;;;;;;11.53;7.10;;;4.80;67.50;;;;;;8193699;28;21083;-74
2021/01/11 11:20:49;;;;;;;11.30;6.60;;;5.00;66.90;;;;;;8183628;28;20500;-75
2021/01/11 11:24:54;;;;;;;10.87;7.70;;;5.10;66.80;;;;;;8197184;28;20457;-74
2021/01/11 11:29:05;;;;;;;11.63;7.77;;;5.00;67.70;;;;;;8193110;28;20476;-74
2021/01/11 11:33:09;;;;;;;14.23;6.87;;;5.00;68.00;;;;;;8189937;28;20452;-74
2021/01/11 11:37:15;;;;;;;10.60;6.67;;;5.10;68.70;;;;;;8206998;28;20485;-75
2021/01/11 11:41:20;;;;;;;7.40;5.73;;;5.10;69.20;;;;;;8178655;28;20928;-74
2021/01/11 11:45:32;;;;;;;8.17;7.33;;;5.00;69.10;;;;;;8190013;28;20553;-75
2021/01/11 11:49:35;;;;;;;14.33;8.10;;;5.00;69.70;;;;;;8183966;28;20472;-75
2021/01/11 11:53:38;;;;;;;10.37;7.67;;;5.00;70.00;;;;;;8185923;28;20954;-74
2021/01/11 11:57:40;;;;;;;9.90;5.97;;;5.20;70.20;;;;;;8197568;28;20479;-74
2021/01/11 12:01:51;;;;;;;10.83;6.50;;;5.20;70.20;;;;;;8186028;28;20452;-75
2021/01/11 12:05:58;;;;;;;7.67;6.83;;;5.20;70.60;;;;;;8209279;28;20472;-75
2021/01/11 12:10:05;;;;;;;13.30;8.20;;;5.20;70.80;;;;;;8187944;28;20509;-74
2021/01/11 12:14:06;;;;;;;8.00;5.90;;;5.20;71.40;;;;;;8191016;28;20458;-74
2021/01/11 12:18:07;;;;;;;8.97;6.00;;;5.20;71.70;;;;;;8192575;28;20450;-73
2021/01/11 12:22:26;;;;;;;7.67;6.27;;;5.20;72.30;;;;;;8193473;29;20454;-74
2021/01/11 12:26:28;;;;;;;11.30;6.67;;;5.20;72.20;;;;;;8190930;28;20458;-75
2021/01/11 12:30:37;;;;;;;10.77;7.40;;;5.30;72.30;;;;;;8202242;28;20484;-76
2021/01/11 12:34:42;;;;;;;11.60;8.63;;;5.30;72.20;;;;;;8195942;28;20532;-73
2021/01/11 12:38:43;;;;;;;12.53;8.30;;;5.40;72.10;;;;;;8188732;28;20876;-74
2021/01/11 12:42:48;;;;;;;10.73;7.67;;;5.40;72.60;;;;;;8201605;28;20461;-75
2021/01/11 12:46:56;;;;;;;12.23;9.00;;;5.40;72.70;;;;;;8171609;29;20800;-74
2021/01/11 12:51:01;;;;;;;14.43;7.90;;;5.40;73.10;;;;;;8195388;28;21313;-74
2021/01/11 12:55:09;;;;;;;12.40;7.60;;;5.30;73.70;;;;;;8208577;28;20453;-74
2021/01/11 12:59:10;;;;;;;10.03;7.30;;;5.40;74.10;;;;;;8194820;28;20454;-74
2021/01/11 13:03:14;;;;;;;10.33;7.80;;;5.40;74.20;;;;;;8217448;28;21053;-74
2021/01/11 13:07:18;;;;;;;15.73;8.17;;;5.50;74.70;;;;;;8188913;28;21092;-75
2021/01/11 13:11:21;;;;;;;10.47;7.10;;;5.50;74.40;;;;;;8195242;28;20488;-76
2021/01/11 13:15:31;;;;;;;9.40;7.00;;;5.50;74.10;;;;;;8189750;28;20466;-75
2021/01/11 13:19:32;;;;;;;12.57;8.50;;;5.50;74.20;;;;;;8196364;28;20458;-74
2021/01/11 13:23:44;;;;;;;11.90;7.67;;;5.50;74.40;;;;;;8200059;28;20489;-75
2021/01/11 13:27:49;;;;;;;12.13;8.03;;;5.50;74.70;;;;;;8205578;28;20449;-75
2021/01/11 13:31:54;;;;;;;9.13;7.67;;;5.50;74.50;;;;;;8205690;28;20552;-76
2021/01/11 13:36:09;;;;;;;16.03;9.90;;;5.40;74.60;;;;;;8190839;28;20453;-75
2021/01/11 13:40:13;;;;;;;14.43;9.57;;;5.40;74.60;;;;;;8194990;28;20453;-75
2021/01/11 13:44:36;;;;;;;12.37;8.43;;;5.40;75.00;;;;;;8196429;28;20458;-74
2021/01/11 13:48:43;;;;;;;11.80;8.33;;;5.40;75.00;;;;;;8191779;28;20574;-76
2021/01/11 13:52:48;;;;;;;12.63;8.80;;;5.40;74.70;;;;;;8193584;28;20528;-74
2021/01/11 13:56:49;;;;;;;16.13;10.20;;;5.40;74.80;;;;;;8233247;28;20454;-74
2021/01/11 14:00:55;;;;;;;18.40;7.97;;;5.30;75.60;;;;;;8195208;28;20464;-75
2021/01/11 14:05:14;;;;;;;13.57;8.40;;;5.30;75.40;;;;;;8197912;28;20464;-75
2021/01/11 14:09:20;;;;;;;17.73;9.73;;;5.20;75.50;;;;;;8194872;28;20970;-76
2021/01/11 14:13:32;;;;;;;25.20;10.40;;;5.20;75.30;;;;;;8196186;28;20499;-75
2021/01/11 14:17:34;;;;;;;20.10;10.33;;;5.10;75.50;;;;;;8205135;28;20442;-75
2021/01/11 14:21:59;;;;;;;19.50;9.13;;;5.10;76.00;;;;;;8195758;28;20492;-75
2021/01/11 14:26:06;;;;;;;16.17;9.80;;;5.10;76.30;;;;;;8186298;28;20483;-75
2021/01/11 14:30:08;;;;;;;12.90;9.00;;;5.00;76.50;;;;;;8193895;28;20549;-75
2021/01/11 14:34:16;;;;;;;19.43;10.93;;;5.00;76.80;;;;;;8195438;28;20480;-75
2021/01/11 14:38:18;;;;;;;14.53;8.83;;;5.10;77.00;;;;;;8188692;28;20792;-75
2021/01/11 14:42:27;;;;;;;15.27;9.17;;;5.10;77.10;;;;;;8210921;28;20484;-73
2021/01/11 14:46:28;;;;;;;16.30;9.93;;;5.10;77.00;;;;;;8202276;28;20453;-74
2021/01/11 14:50:41;;;;;;;16.83;10.87;;;5.10;77.10;;;;;;8197765;28;20562;-74
2021/01/11 14:54:45;;;;;;;13.80;8.70;;;5.20;77.20;;;;;;8201512;28;20449;-74
2021/01/11 14:58:49;;;;;;;16.90;10.00;;;5.20;77.00;;;;;;8208949;28;20501;-75
2021/01/11 15:02:56;;;;;;;14.00;9.57;;;5.20;76.80;;;;;;8200185;28;20561;-74
2021/01/11 15:07:04;;;;;;;17.27;10.00;;;5.30;76.80;;;;;;8199641;28;20464;-75
2021/01/11 15:11:04;;;;;;;14.70;9.00;;;5.30;76.80;;;;;;8197347;28;20486;-75
2021/01/11 15:15:10;;;;;;;17.73;9.93;;;5.30;76.90;;;;;;8192639;28;20466;-74
2021/01/11 15:19:16;;;;;;;12.50;8.77;;;5.30;76.80;;;;;;8215144;28;20484;-74
2021/01/11 15:23:29;;;;;;;14.70;10.17;;;5.30;77.00;;;;;;8221221;28;20448;-74
2021/01/11 15:27:30;;;;;;;18.60;10.90;;;5.30;76.90;;;;;;8182343;28;20464;-74
2021/01/11 15:31:34;;;;;;;12.43;8.97;;;5.30;77.10;;;;;;8189979;28;20488;-75
2021/01/11 15:35:41;;;;;;;19.07;10.90;;;5.30;77.00;;;;;;8190944;28;20208;-73
2021/01/11 15:39:44;;;;;;;20.13;12.87;;;5.30;77.00;;;;;;8172974;28;20451;-74
2021/01/11 15:43:45;;;;;;;23.03;12.43;;;5.20;77.00;;;;;;8192562;28;20589;-74
2021/01/11 15:47:46;;;;;;;24.10;12.43;;;5.20;77.60;;;;;;8214402;28;20452;-73
2021/01/11 15:51:46;;;;;;;15.27;11.67;;;5.10;77.60;;;;;;8187128;28;20228;-74
2021/01/11 15:55:48;;;;;;;18.47;11.83;;;5.20;77.90;;;;;;8196564;29;20198;-76
2021/01/11 15:59:55;;;;;;;17.53;9.33;;;5.20;78.00;;;;;;8208924;28;20206;-75
2021/01/11 16:04:04;;;;;;;13.90;9.20;;;5.20;78.20;;;;;;8202644;28;20575;-75
2021/01/11 16:08:15;;;;;;;12.30;8.17;;;5.20;78.30;;;;;;8196305;28;20500;-75
2021/01/11 16:12:16;;;;;;;16.50;10.45;;;5.30;78.20;;;;;;8199714;28;20456;-75
2021/01/11 16:16:20;;;;;;;20.30;9.43;;;5.40;78.60;;;;;;8197106;28;20190;-75
2021/01/11 16:20:22;;;;;;;16.57;10.17;;;5.40;77.60;;;;;;8193502;28;20548;-75
2021/01/11 16:24:24;;;;;;;17.20;10.40;;;5.40;77.70;;;;;;8196070;28;20200;-74
2021/01/11 16:28:24;;;;;;;17.73;8.97;;;5.40;77.80;;;;;;8211787;28;20481;-74
2021/01/11 16:32:25;;;;;;;11.97;9.27;;;5.40;77.80;;;;;;8170392;28;20485;-75
2021/01/11 16:36:27;;;;;;;15.20;9.87;;;5.40;78.00;;;;;;8194653;28;20558;-75
2021/01/11 16:40:28;;;;;;;14.80;8.60;;;5.40;77.70;;;;;;8206410;28;20208;-75
2021/01/11 16:44:29;;;;;;;26.90;13.00;;;5.40;77.90;;;;;;8215051;28;20474;-75
2021/01/11 16:48:29;;;;;;;9.83;7.03;;;5.50;77.90;;;;;;8198769;28;20193;-75
2021/01/11 16:52:42;;;;;;;13.93;8.57;;;5.50;77.70;;;;;;8182954;28;20205;-75
2021/01/11 16:56:46;;;;;;;11.10;8.53;;;5.50;77.50;;;;;;8197064;28;20484;-75
2021/01/11 17:00:50;;;;;;;13.47;8.30;;;5.60;77.50;;;;;;8205696;28;20476;-75
2021/01/11 17:04:52;;;;;;;20.33;9.00;;;5.60;77.70;;;;;;8183786;28;20473;-73
2021/01/11 17:08:58;;;;;;;13.53;8.10;;;5.60;77.50;;;;;;8203671;28;20481;-75
2021/01/11 17:13:06;;;;;;;14.60;8.57;;;5.60;77.30;;;;;;8207378;28;20476;-75
2021/01/11 17:17:13;;;;;;;17.53;8.63;;;5.60;77.40;;;;;;8201731;28;20452;-74
2021/01/11 17:21:14;;;;;;;13.00;8.63;;;5.60;77.50;;;;;;8200137;28;20445;-75
2021/01/11 17:25:16;;;;;;;9.63;8.03;;;5.60;77.40;;;;;;8213438;28;20457;-75
2021/01/11 17:29:17;;;;;;;14.33;9.60;;;5.60;77.50;;;;;;8195269;28;20452;-75
2021/01/11 17:33:28;;;;;;;16.60;9.00;;;5.60;77.60;;;;;;8216301;28;20457;-76
2021/01/11 17:37:32;;;;;;;11.80;9.10;;;5.60;77.90;;;;;;8211320;28;20476;-75
2021/01/11 17:41:38;;;;;;;14.20;9.63;;;5.60;78.20;;;;;;8214155;28;20887;-75
2021/01/11 17:45:42;;;;;;;15.50;10.40;;;5.60;77.60;;;;;;8206970;28;20461;-73
2021/01/11 17:49:44;;;;;;;15.07;9.67;;;5.60;77.90;;;;;;8217964;28;20484;-75
2021/01/11 17:53:46;;;;;;;15.13;8.67;;;5.60;78.00;;;;;;8193525;28;20536;-74
2021/01/11 17:57:47;;;;;;;13.10;8.90;;;5.60;78.10;;;;;;8192134;28;20483;-74
2021/01/11 18:01:50;;;;;;;10.93;8.43;;;5.50;78.10;;;;;;8198527;28;20463;-73
2021/01/11 18:05:57;;;;;;;13.03;9.83;;;5.60;78.10;;;;;;8194793;28;20212;-74
2021/01/11 18:09:58;;;;;;;13.20;9.70;;;5.60;78.20;;;;;;8195711;28;20565;-74
2021/01/11 18:14:03;;;;;;;13.43;8.87;;;5.60;78.30;;;;;;8195297;28;20459;-75
2021/01/11 18:18:13;;;;;;;13.80;9.03;;;5.50;78.20;;;;;;8184204;28;20829;-74
2021/01/11 18:22:25;;;;;;;17.50;10.17;;;5.50;78.40;;;;;;8190465;28;20297;-74
2021/01/11 18:26:34;;;;;;;15.43;9.73;;;5.50;78.60;;;;;;8192411;28;20468;-75
2021/01/11 18:30:45;;;;;;;16.57;10.57;;;5.50;78.70;;;;;;8199480;28;20477;-74
2021/01/11 18:34:47;;;;;;;13.17;9.40;;;5.60;78.80;;;;;;8165805;28;20988;-74
2021/01/11 18:38:48;;;;;;;12.83;8.27;;;5.60;78.70;;;;;;8196609;28;20786;-73
2021/01/11 18:42:51;;;;;;;13.63;9.50;;;5.60;78.60;;;;;;8229825;28;20481;-74
2021/01/11 18:46:57;;;;;;;12.63;9.07;;;5.70;78.90;;;;;;8197608;28;20449;-74
2021/01/11 18:50:59;;;;;;;12.07;9.63;;;5.70;78.90;;;;;;8191010;28;20797;-73
2021/01/11 18:55:04;;;;;;;10.53;8.93;;;5.80;78.80;;;;;;8206348;28;20457;-76
2021/01/11 18:59:07;;;;;;;8.87;6.43;;;5.80;78.90;;;;;;8189070;28;20811;-76
2021/01/11 19:03:09;;;;;;;11.03;8.13;;;5.90;79.00;;;;;;8198828;28;20472;-75
2021/01/11 19:07:13;;;;;;;14.73;7.97;;;6.00;78.50;;;;;;8208068;28;20453;-75
2021/01/11 19:11:13;;;;;;;7.83;6.50;;;6.10;78.20;;;;;;8194054;28;20476;-74
2021/01/11 19:15:15;;;;;;;13.80;8.37;;;6.10;78.30;;;;;;8189265;28;20482;-74
2021/01/11 19:19:19;;;;;;;8.07;7.30;;;6.10;77.90;;;;;;8190934;28;20245;-75
2021/01/11 19:23:20;;;;;;;13.03;7.70;;;6.20;77.70;;;;;;8197237;28;20464;-75
2021/01/11 19:27:24;;;;;;;9.80;6.77;;;6.20;77.70;;;;;;8205029;28;20433;-75
2021/01/11 19:31:25;;;;;;;14.40;8.20;;;6.30;77.50;;;;;;8211535;28;20477;-75
2021/01/11 19:35:34;;;;;;;13.10;9.07;;;6.30;77.40;;;;;;8197635;28;20666;-75
2021/01/11 19:39:36;;;;;;;12.70;7.97;;;6.30;77.20;;;;;;8199298;28;20201;-76
2021/01/11 19:43:37;;;;;;;12.77;7.90;;;6.30;77.30;;;;;;8196668;28;20464;-76
2021/01/11 19:47:41;;;;;;;13.50;8.43;;;6.30;77.30;;;;;;8209537;28;20456;-76
2021/01/11 19:51:44;;;;;;;10.57;8.13;;;6.30;77.30;;;;;;8222200;28;20209;-76
2021/01/11 19:55:46;;;;;;;16.70;9.17;;;6.30;77.40;;;;;;8203917;28;20826;-76
2021/01/11 19:59:49;;;;;;;18.40;9.67;;;6.40;77.60;;;;;;8191999;29;20924;-74
2021/01/11 20:03:57;;;;;;;15.70;10.20;;;6.40;77.50;;;;;;8204237;28;20487;-74
2021/01/11 20:08:05;;;;;;;14.80;8.93;;;6.40;77.40;;;;;;8193766;28;20457;-73
2021/01/11 20:12:07;;;;;;;14.87;9.93;;;6.40;77.30;;;;;;8196008;28;20470;-73
2021/01/11 20:16:13;;;;;;;14.43;9.73;;;6.50;77.60;;;;;;8225634;28;20469;-74
2021/01/11 20:20:22;;;;;;;15.67;10.30;;;6.40;77.50;;;;;;8222004;28;20982;-74
2021/01/11 20:24:23;;;;;;;18.90;9.30;;;6.40;77.70;;;;;;8209909;28;20458;-75
2021/01/11 20:28:23;;;;;;;15.00;10.37;;;6.40;77.70;;;;;;8196116;28;20518;-74
2021/01/11 20:32:27;;;;;;;13.73;9.93;;;6.50;77.60;;;;;;8197730;28;20234;-73
2021/01/11 20:36:28;;;;;;;18.10;11.67;;;6.40;77.70;;;;;;8199835;28;20187;-75
2021/01/11 20:40:29;;;;;;;18.83;11.53;;;6.40;78.10;;;;;;8193683;28;20453;-75
2021/01/11 20:44:32;;;;;;;19.47;11.63;;;6.40;78.10;;;;;;8209069;28;20464;-75
2021/01/11 20:48:33;;;;;;;16.90;11.23;;;6.40;78.00;;;;;;8188187;28;20477;-74
2021/01/11 20:52:36;;;;;;;15.77;10.43;;;6.50;78.00;;;;;;8193903;28;20501;-75
2021/01/11 20:56:46;;;;;;;15.30;11.17;;;6.50;77.90;;;;;;8211021;28;20202;-74
2021/01/11 21:00:48;;;;;;;18.77;11.00;;;6.60;78.00;;;;;;8199582;28;20533;-75
2021/01/11 21:04:48;;;;;;;19.37;10.63;;;6.60;78.10;;;;;;8196845;28;20597;-76
2021/01/11 21:08:49;;;;;;;18.10;11.73;;;6.70;78.00;;;;;;8178155;28;20471;-74
2021/01/11 21:12:51;;;;;;;20.77;12.13;;;6.70;77.70;;;;;;8178741;28;20277;-75
2021/01/11 21:16:55;;;;;;;17.03;10.90;;;6.70;77.80;;;;;;8202015;28;20243;-76
2021/01/11 21:20:56;;;;;;;18.77;11.57;;;6.80;77.80;;;;;;8189100;28;20482;-74
2021/01/11 21:24:59;;;;;;;17.53;11.20;;;6.80;77.70;;;;;;8187216;28;20211;-75